ADDS METAR Data INFO
IDs: Format: Raw Decoded Include TAF

Data at: 0503 UTC 21 Feb 2018

KTLH 201511Z 12009KT 10SM SCT014 BKN049 24/20 A3034 RMK AO2 T02390200
KTLH 201453Z 12009KT 10SM BKN012 BKN049 23/20 A3034 RMK AO2 SLP273 T02330200 51012
KTLH 201441Z 13010KT 10SM BKN011 BKN070 23/20 A3034 RMK AO2 T02280200
KTLH 201430Z 13009KT 10SM SCT011 BKN070 22/20 A3034 RMK AO2 T02220200
KTLH 201353Z 12011KT 10SM OVC006 21/19 A3033 RMK AO2 CIG 005V009 SLP270 T02060194
KTLH 201253Z 11006KT 5SM BR BKN006 19/19 A3032 RMK AO2 SLP266 T01890189
KTLH 201203Z 10006KT 5SM BR BKN006 18/18 A3031 RMK AO2 VIS W 1/2 T01780178
KTLH 201153Z 10005KT 10SM SCT002 18/18 A3030 RMK AO2 SLP260 T01780178 10183 20150 53010
KTLH 201140Z 11005KT 10SM FEW002 18/18 A3030 RMK AO2 T01780178
KTLH 201053Z 11005KT 10SM CLR 18/17 A3029 RMK AO2 SLP256 T01780172
KTLH 200953Z AUTO 11006KT 10SM CLR 18/17 A3028 RMK AO2 SLP252 T01780172
KTLH 200853Z AUTO 10007KT 10SM CLR 18/17 A3027 RMK AO2 SLP250 T01780167 56003
KTLH 200753Z AUTO 11006KT 10SM CLR 18/17 A3027 RMK AO2 SLP250 T01780167
KTLH 200653Z AUTO 11007KT 10SM CLR 17/16 A3028 RMK AO2 SLP252 T01720156
KTLH 200553Z AUTO 00000KT 10SM CLR 15/13 A3028 RMK AO2 SLP253 T01500133 10222 20150 53004
KTLH 200453Z AUTO 09003KT 10SM CLR 16/14 A3028 RMK AO2 SLP252 T01560144 402720156
KTLH 200353Z 00000KT 10SM CLR 17/16 A3027 RMK AO2 SLP248 LAST T01720156
KTLH 200253Z 00000KT 10SM CLR 17/14 A3027 RMK AO2 SLP248 T01720139 53005
KTLH 200153Z 00000KT 10SM CLR 18/14 A3026 RMK AO2 SLP246 T01830144
KTLH 200053Z COR 00000KT 10SM CLR 20/14 A3025 RMK AO2 SLP244 T02000144
KTLH 192353Z 15004KT 10SM FEW250 22/15 A3025 RMK AO2 SLP243 T02220150 10272 20222 53005
KTLH 192253Z 17005KT 10SM FEW070 25/15 A3025 RMK AO2 SLP241 T02500150
KTLH 192153Z 18010KT 10SM FEW070 26/16 A3024 RMK AO2 SLP237 T02610156
KTLH 192053Z COR 16012KT 10SM FEW040 27/16 A3024 RMK AO2 SLP238 T02670156 56021
KTLH 191953Z 16011KT 10SM FEW034 FEW070 26/16 A3025 RMK AO2 SLP241 T02610161
KTLH 191853Z 16010G17KT 10SM BKN034 BKN070 27/17 A3026 RMK AO2 SLP247 T02670167
KTLH 191830Z 17010KT 10SM BKN034 BKN070 27/17 A3028 RMK AO2 T02670172
KTLH 191753Z 16011KT 130V200 10SM BKN027 BKN070 26/18 A3030 RMK AO2 SLP259 T02560183 10256 20178 58010